sensor_id;sensor_type;location;lat;lon;timestamp;P1;durP1;ratioP1;P2;durP2;ratioP2
64595;SDS011;51003;51.628;6.670;2023-05-10T00:00:16;12.37;;;8.13;;
64595;SDS011;51003;51.628;6.670;2023-05-10T00:02:41;11.13;;;7.20;;
64595;SDS011;51003;51.628;6.670;2023-05-10T00:05:07;11.20;;;7.37;;
64595;SDS011;51003;51.628;6.670;2023-05-10T00:07:33;14.57;;;8.30;;
64595;SDS011;51003;51.628;6.670;2023-05-10T00:09:59;13.20;;;7.73;;
64595;SDS011;51003;51.628;6.670;2023-05-10T00:12:24;12.50;;;7.50;;
64595;SDS011;51003;51.628;6.670;2023-05-10T00:14:50;10.93;;;7.33;;
64595;SDS011;51003;51.628;6.670;2023-05-10T00:17:16;12.57;;;7.50;;
64595;SDS011;51003;51.628;6.670;2023-05-10T00:19:42;12.30;;;7.40;;
64595;SDS011;51003;51.628;6.670;2023-05-10T00:22:07;15.03;;;7.57;;
64595;SDS011;51003;51.628;6.670;2023-05-10T00:24:33;12.30;;;7.37;;
64595;SDS011;51003;51.628;6.670;2023-05-10T00:26:59;12.63;;;8.37;;
64595;SDS011;51003;51.628;6.670;2023-05-10T00:29:25;12.20;;;7.37;;
64595;SDS011;51003;51.628;6.670;2023-05-10T00:31:51;12.93;;;7.77;;
64595;SDS011;51003;51.628;6.670;2023-05-10T00:34:17;14.43;;;8.63;;
64595;SDS011;51003;51.628;6.670;2023-05-10T00:36:42;13.07;;;8.13;;
64595;SDS011;51003;51.628;6.670;2023-05-10T00:39:08;12.73;;;7.70;;
64595;SDS011;51003;51.628;6.670;2023-05-10T00:41:34;12.27;;;7.17;;
64595;SDS011;51003;51.628;6.670;2023-05-10T00:43:59;13.33;;;8.13;;
64595;SDS011;51003;51.628;6.670;2023-05-10T00:46:26;14.60;;;8.43;;
64595;SDS011;51003;51.628;6.670;2023-05-10T00:48:53;13.20;;;8.53;;
64595;SDS011;51003;51.628;6.670;2023-05-10T00:51:18;15.87;;;8.70;;
64595;SDS011;51003;51.628;6.670;2023-05-10T00:53:44;14.67;;;8.87;;
64595;SDS011;51003;51.628;6.670;2023-05-10T00:56:10;17.27;;;9.13;;
64595;SDS011;51003;51.628;6.670;2023-05-10T00:58:36;13.33;;;8.63;;
64595;SDS011;51003;51.628;6.670;2023-05-10T01:01:01;17.63;;;9.43;;
64595;SDS011;51003;51.628;6.670;2023-05-10T01:03:26;18.87;;;9.60;;
64595;SDS011;51003;51.628;6.670;2023-05-10T01:05:53;16.33;;;10.07;;
64595;SDS011;51003;51.628;6.670;2023-05-10T01:08:19;16.20;;;9.20;;
64595;SDS011;51003;51.628;6.670;2023-05-10T01:10:44;15.77;;;8.87;;
64595;SDS011;51003;51.628;6.670;2023-05-10T01:13:10;14.27;;;8.57;;
64595;SDS011;51003;51.628;6.670;2023-05-10T01:15:36;14.10;;;8.97;;
64595;SDS011;51003;51.628;6.670;2023-05-10T01:18:02;17.80;;;8.70;;
64595;SDS011;51003;51.628;6.670;2023-05-10T01:20:40;14.67;;;8.23;;
64595;SDS011;51003;51.628;6.670;2023-05-10T01:36:01;20.60;;;9.50;;
64595;SDS011;51003;51.628;6.670;2023-05-10T01:43:42;15.27;;;9.20;;
64595;SDS011;51003;51.628;6.670;2023-05-10T01:46:40;18.93;;;8.97;;
64595;SDS011;51003;51.628;6.670;2023-05-10T01:49:07;18.33;;;9.33;;
64595;SDS011;51003;51.628;6.670;2023-05-10T01:51:36;16.50;;;9.20;;
64595;SDS011;51003;51.628;6.670;2023-05-10T01:54:04;16.47;;;8.83;;
64595;SDS011;51003;51.628;6.670;2023-05-10T01:56:32;15.50;;;8.53;;
64595;SDS011;51003;51.628;6.670;2023-05-10T01:58:58;19.50;;;9.00;;
64595;SDS011;51003;51.628;6.670;2023-05-10T02:01:25;17.00;;;9.80;;
64595;SDS011;51003;51.628;6.670;2023-05-10T02:03:51;16.20;;;9.60;;
64595;SDS011;51003;51.628;6.670;2023-05-10T02:06:18;19.03;;;10.00;;
64595;SDS011;51003;51.628;6.670;2023-05-10T02:08:43;17.47;;;10.07;;
64595;SDS011;51003;51.628;6.670;2023-05-10T02:11:12;21.50;;;10.43;;
64595;SDS011;51003;51.628;6.670;2023-05-10T02:13:38;24.30;;;12.70;;
64595;SDS011;51003;51.628;6.670;2023-05-10T02:16:04;23.37;;;12.17;;
64595;SDS011;51003;51.628;6.670;2023-05-10T02:18:30;23.30;;;10.80;;
64595;SDS011;51003;51.628;6.670;2023-05-10T02:20:57;21.93;;;11.77;;
64595;SDS011;51003;51.628;6.670;2023-05-10T02:23:23;24.57;;;12.27;;
64595;SDS011;51003;51.628;6.670;2023-05-10T02:25:49;26.70;;;12.20;;
64595;SDS011;51003;51.628;6.670;2023-05-10T02:28:15;24.10;;;12.03;;
64595;SDS011;51003;51.628;6.670;2023-05-10T02:30:42;26.07;;;13.03;;
64595;SDS011;51003;51.628;6.670;2023-05-10T02:33:07;28.03;;;12.90;;
64595;SDS011;51003;51.628;6.670;2023-05-10T02:35:33;27.10;;;12.67;;
64595;SDS011;51003;51.628;6.670;2023-05-10T02:37:59;26.97;;;12.47;;
64595;SDS011;51003;51.628;6.670;2023-05-10T02:40:26;22.67;;;11.87;;
64595;SDS011;51003;51.628;6.670;2023-05-10T02:42:52;25.47;;;12.80;;
64595;SDS011;51003;51.628;6.670;2023-05-10T02:45:20;22.97;;;11.87;;
64595;SDS011;51003;51.628;6.670;2023-05-10T02:47:48;19.37;;;11.40;;
64595;SDS011;51003;51.628;6.670;2023-05-10T02:50:14;20.93;;;11.20;;
64595;SDS011;51003;51.628;6.670;2023-05-10T02:52:42;21.03;;;11.87;;
64595;SDS011;51003;51.628;6.670;2023-05-10T02:55:11;21.47;;;11.83;;
64595;SDS011;51003;51.628;6.670;2023-05-10T02:57:38;21.57;;;11.53;;
64595;SDS011;51003;51.628;6.670;2023-05-10T03:00:07;20.53;;;11.40;;
64595;SDS011;51003;51.628;6.670;2023-05-10T03:02:33;23.33;;;11.53;;
64595;SDS011;51003;51.628;6.670;2023-05-10T03:05:01;22.80;;;12.70;;
64595;SDS011;51003;51.628;6.670;2023-05-10T03:07:27;23.40;;;12.13;;
64595;SDS011;51003;51.628;6.670;2023-05-10T03:09:53;23.67;;;13.07;;
64595;SDS011;51003;51.628;6.670;2023-05-10T03:15:29;26.97;;;13.20;;
64595;SDS011;51003;51.628;6.670;2023-05-10T03:18:21;27.37;;;13.83;;
64595;SDS011;51003;51.628;6.670;2023-05-10T03:20:48;20.30;;;12.40;;
64595;SDS011;51003;51.628;6.670;2023-05-10T03:23:22;27.03;;;14.23;;
64595;SDS011;51003;51.628;6.670;2023-05-10T03:25:55;29.70;;;14.07;;
64595;SDS011;51003;51.628;6.670;2023-05-10T03:28:21;28.87;;;14.50;;
64595;SDS011;51003;51.628;6.670;2023-05-10T03:30:49;26.70;;;15.13;;
64595;SDS011;51003;51.628;6.670;2023-05-10T03:33:17;25.03;;;13.80;;
64595;SDS011;51003;51.628;6.670;2023-05-10T03:35:42;27.53;;;15.00;;
64595;SDS011;51003;51.628;6.670;2023-05-10T03:38:10;30.90;;;14.60;;
64595;SDS011;51003;51.628;6.670;2023-05-10T03:40:36;30.03;;;15.00;;
64595;SDS011;51003;51.628;6.670;2023-05-10T03:43:02;30.00;;;15.67;;
64595;SDS011;51003;51.628;6.670;2023-05-10T03:45:28;33.80;;;15.50;;
64595;SDS011;51003;51.628;6.670;2023-05-10T03:47:53;30.40;;;14.97;;
64595;SDS011;51003;51.628;6.670;2023-05-10T03:50:19;28.93;;;14.80;;
64595;SDS011;51003;51.628;6.670;2023-05-10T03:52:44;30.30;;;14.63;;
64595;SDS011;51003;51.628;6.670;2023-05-10T03:55:10;31.13;;;15.80;;
64595;SDS011;51003;51.628;6.670;2023-05-10T03:57:36;30.13;;;15.60;;
64595;SDS011;51003;51.628;6.670;2023-05-10T04:00:03;30.10;;;14.07;;
64595;SDS011;51003;51.628;6.670;2023-05-10T04:02:28;31.73;;;15.47;;
64595;SDS011;51003;51.628;6.670;2023-05-10T04:04:55;30.80;;;15.70;;
64595;SDS011;51003;51.628;6.670;2023-05-10T04:07:21;29.23;;;15.07;;
64595;SDS011;51003;51.628;6.670;2023-05-10T04:09:46;32.70;;;16.57;;
64595;SDS011;51003;51.628;6.670;2023-05-10T04:12:12;33.87;;;16.80;;
64595;SDS011;51003;51.628;6.670;2023-05-10T04:14:37;34.73;;;16.57;;
64595;SDS011;51003;51.628;6.670;2023-05-10T04:17:03;32.37;;;15.70;;
64595;SDS011;51003;51.628;6.670;2023-05-10T04:19:28;29.77;;;15.90;;
64595;SDS011;51003;51.628;6.670;2023-05-10T04:21:55;34.70;;;17.30;;
64595;SDS011;51003;51.628;6.670;2023-05-10T04:24:20;32.77;;;15.80;;
64595;SDS011;51003;51.628;6.670;2023-05-10T04:26:45;34.77;;;16.83;;
64595;SDS011;51003;51.628;6.670;2023-05-10T04:29:11;31.00;;;15.47;;
64595;SDS011;51003;51.628;6.670;2023-05-10T04:31:36;34.73;;;16.03;;
64595;SDS011;51003;51.628;6.670;2023-05-10T04:34:02;35.60;;;18.03;;
64595;SDS011;51003;51.628;6.670;2023-05-10T04:36:28;38.43;;;17.40;;
64595;SDS011;51003;51.628;6.670;2023-05-10T04:38:53;37.37;;;18.00;;
64595;SDS011;51003;51.628;6.670;2023-05-10T04:41:19;36.40;;;17.33;;
64595;SDS011;51003;51.628;6.670;2023-05-10T04:43:45;40.50;;;19.47;;
64595;SDS011;51003;51.628;6.670;2023-05-10T04:46:11;42.07;;;18.90;;
64595;SDS011;51003;51.628;6.670;2023-05-10T04:48:36;43.70;;;19.90;;
64595;SDS011;51003;51.628;6.670;2023-05-10T04:51:01;40.73;;;18.60;;
64595;SDS011;51003;51.628;6.670;2023-05-10T04:53:28;43.40;;;18.67;;
64595;SDS011;51003;51.628;6.670;2023-05-10T04:55:54;38.57;;;18.70;;
64595;SDS011;51003;51.628;6.670;2023-05-10T04:58:19;39.50;;;19.20;;
64595;SDS011;51003;51.628;6.670;2023-05-10T05:00:45;40.50;;;18.23;;
64595;SDS011;51003;51.628;6.670;2023-05-10T05:03:11;44.07;;;19.20;;
64595;SDS011;51003;51.628;6.670;2023-05-10T05:05:37;41.57;;;19.83;;
64595;SDS011;51003;51.628;6.670;2023-05-10T05:08:02;42.03;;;19.57;;
64595;SDS011;51003;51.628;6.670;2023-05-10T05:10:28;40.10;;;19.60;;
64595;SDS011;51003;51.628;6.670;2023-05-10T05:12:53;46.57;;;20.00;;
64595;SDS011;51003;51.628;6.670;2023-05-10T05:15:19;41.70;;;19.50;;
64595;SDS011;51003;51.628;6.670;2023-05-10T05:17:44;42.20;;;20.40;;
64595;SDS011;51003;51.628;6.670;2023-05-10T05:20:10;47.17;;;19.67;;
64595;SDS011;51003;51.628;6.670;2023-05-10T05:22:38;44.03;;;20.27;;
64595;SDS011;51003;51.628;6.670;2023-05-10T05:25:03;44.47;;;20.83;;
64595;SDS011;51003;51.628;6.670;2023-05-10T05:27:29;46.50;;;20.03;;
64595;SDS011;51003;51.628;6.670;2023-05-10T05:29:55;36.23;;;18.20;;
64595;SDS011;51003;51.628;6.670;2023-05-10T05:32:21;43.13;;;20.40;;
64595;SDS011;51003;51.628;6.670;2023-05-10T05:34:47;42.33;;;19.20;;
64595;SDS011;51003;51.628;6.670;2023-05-10T05:37:13;41.10;;;20.13;;
64595;SDS011;51003;51.628;6.670;2023-05-10T05:39:43;39.67;;;19.40;;
64595;SDS011;51003;51.628;6.670;2023-05-10T05:42:09;41.60;;;19.33;;
64595;SDS011;51003;51.628;6.670;2023-05-10T05:44:35;43.20;;;19.23;;
64595;SDS011;51003;51.628;6.670;2023-05-10T05:47:00;37.93;;;19.07;;
64595;SDS011;51003;51.628;6.670;2023-05-10T05:49:26;40.60;;;20.17;;
64595;SDS011;51003;51.628;6.670;2023-05-10T05:51:51;40.83;;;20.30;;
64595;SDS011;51003;51.628;6.670;2023-05-10T05:54:17;37.87;;;19.70;;
64595;SDS011;51003;51.628;6.670;2023-05-10T05:56:42;39.77;;;20.93;;
64595;SDS011;51003;51.628;6.670;2023-05-10T05:59:09;42.97;;;21.17;;
64595;SDS011;51003;51.628;6.670;2023-05-10T06:01:34;44.30;;;21.33;;
64595;SDS011;51003;51.628;6.670;2023-05-10T06:04:00;38.00;;;20.17;;
64595;SDS011;51003;51.628;6.670;2023-05-10T07:47:41;62.57;;;22.37;;
64595;SDS011;51003;51.628;6.670;2023-05-10T07:50:07;56.27;;;22.10;;
64595;SDS011;51003;51.628;6.670;2023-05-10T07:52:46;45.70;;;21.20;;
64595;SDS011;51003;51.628;6.670;2023-05-10T07:55:11;48.13;;;21.30;;
64595;SDS011;51003;51.628;6.670;2023-05-10T07:57:38;42.47;;;19.23;;
64595;SDS011;51003;51.628;6.670;2023-05-10T08:00:04;39.27;;;18.73;;
64595;SDS011;51003;51.628;6.670;2023-05-10T08:02:29;37.97;;;18.33;;
64595;SDS011;51003;51.628;6.670;2023-05-10T08:04:55;36.47;;;19.10;;
64595;SDS011;51003;51.628;6.670;2023-05-10T08:07:20;36.60;;;18.40;;
64595;SDS011;51003;51.628;6.670;2023-05-10T08:09:46;34.00;;;17.23;;
64595;SDS011;51003;51.628;6.670;2023-05-10T08:18:31;34.97;;;17.07;;
64595;SDS011;51003;51.628;6.670;2023-05-10T08:20:57;32.87;;;17.00;;
64595;SDS011;51003;51.628;6.670;2023-05-10T08:23:22;31.50;;;16.83;;
64595;SDS011;51003;51.628;6.670;2023-05-10T08:25:48;31.23;;;16.37;;
64595;SDS011;51003;51.628;6.670;2023-05-10T08:28:13;29.27;;;16.10;;
64595;SDS011;51003;51.628;6.670;2023-05-10T08:30:38;29.50;;;16.07;;
64595;SDS011;51003;51.628;6.670;2023-05-10T08:33:04;29.67;;;17.10;;
64595;SDS011;51003;51.628;6.670;2023-05-10T08:35:30;30.77;;;15.23;;
64595;SDS011;51003;51.628;6.670;2023-05-10T08:37:55;29.97;;;15.10;;
64595;SDS011;51003;51.628;6.670;2023-05-10T08:40:21;25.33;;;14.73;;
64595;SDS011;51003;51.628;6.670;2023-05-10T08:45:38;29.10;;;15.97;;
64595;SDS011;51003;51.628;6.670;2023-05-10T08:48:05;34.43;;;17.50;;
64595;SDS011;51003;51.628;6.670;2023-05-10T08:50:31;32.87;;;17.00;;
64595;SDS011;51003;51.628;6.670;2023-05-10T08:53:00;30.33;;;16.30;;
64595;SDS011;51003;51.628;6.670;2023-05-10T08:55:29;32.57;;;16.27;;
64595;SDS011;51003;51.628;6.670;2023-05-10T08:57:55;31.23;;;16.20;;
64595;SDS011;51003;51.628;6.670;2023-05-10T09:00:20;33.43;;;17.47;;
64595;SDS011;51003;51.628;6.670;2023-05-10T09:03:30;30.90;;;17.20;;
64595;SDS011;51003;51.628;6.670;2023-05-10T09:06:43;28.40;;;16.33;;
64595;SDS011;51003;51.628;6.670;2023-05-10T09:10:06;25.60;;;14.40;;
64595;SDS011;51003;51.628;6.670;2023-05-10T09:13:31;27.40;;;14.60;;
64595;SDS011;51003;51.628;6.670;2023-05-10T09:16:55;32.03;;;15.13;;
64595;SDS011;51003;51.628;6.670;2023-05-10T09:20:19;28.80;;;15.27;;
64595;SDS011;51003;51.628;6.670;2023-05-10T09:23:45;29.07;;;15.47;;
64595;SDS011;51003;51.628;6.670;2023-05-10T09:26:33;27.43;;;14.93;;
64595;SDS011;51003;51.628;6.670;2023-05-10T09:29:13;24.37;;;14.80;;
64595;SDS011;51003;51.628;6.670;2023-05-10T09:31:49;27.13;;;15.63;;
64595;SDS011;51003;51.628;6.670;2023-05-10T09:34:28;30.30;;;16.47;;
64595;SDS011;51003;51.628;6.670;2023-05-10T09:36:55;28.23;;;16.20;;
64595;SDS011;51003;51.628;6.670;2023-05-10T09:42:09;31.30;;;16.90;;
64595;SDS011;51003;51.628;6.670;2023-05-10T09:44:35;25.87;;;14.53;;
64595;SDS011;51003;51.628;6.670;2023-05-10T09:47:03;25.70;;;15.23;;
64595;SDS011;51003;51.628;6.670;2023-05-10T09:49:29;25.00;;;13.90;;
64595;SDS011;51003;51.628;6.670;2023-05-10T09:51:59;22.80;;;13.20;;
64595;SDS011;51003;51.628;6.670;2023-05-10T09:54:28;21.00;;;12.90;;
64595;SDS011;51003;51.628;6.670;2023-05-10T09:56:53;21.67;;;12.53;;
64595;SDS011;51003;51.628;6.670;2023-05-10T09:59:19;23.57;;;13.30;;
64595;SDS011;51003;51.628;6.670;2023-05-10T10:01:51;23.07;;;12.50;;
64595;SDS011;51003;51.628;6.670;2023-05-10T10:04:18;22.17;;;11.57;;
64595;SDS011;51003;51.628;6.670;2023-05-10T10:06:45;20.83;;;12.40;;
64595;SDS011;51003;51.628;6.670;2023-05-10T10:09:11;20.00;;;12.00;;
64595;SDS011;51003;51.628;6.670;2023-05-10T10:11:38;18.53;;;11.63;;
64595;SDS011;51003;51.628;6.670;2023-05-10T10:14:04;19.00;;;11.60;;
64595;SDS011;51003;51.628;6.670;2023-05-10T10:16:30;20.13;;;12.30;;
64595;SDS011;51003;51.628;6.670;2023-05-10T10:18:56;21.60;;;13.67;;
64595;SDS011;51003;51.628;6.670;2023-05-10T10:21:22;19.37;;;12.50;;
64595;SDS011;51003;51.628;6.670;2023-05-10T10:23:48;19.40;;;12.20;;
64595;SDS011;51003;51.628;6.670;2023-05-10T10:26:13;18.90;;;12.17;;
64595;SDS011;51003;51.628;6.670;2023-05-10T10:28:41;22.97;;;12.40;;
64595;SDS011;51003;51.628;6.670;2023-05-10T10:31:27;24.70;;;12.70;;
64595;SDS011;51003;51.628;6.670;2023-05-10T10:34:06;18.83;;;11.07;;
64595;SDS011;51003;51.628;6.670;2023-05-10T10:36:40;18.43;;;12.07;;
64595;SDS011;51003;51.628;6.670;2023-05-10T10:39:10;19.47;;;11.60;;
64595;SDS011;51003;51.628;6.670;2023-05-10T10:41:36;24.20;;;13.10;;
64595;SDS011;51003;51.628;6.670;2023-05-10T10:50:22;22.20;;;13.80;;
64595;SDS011;51003;51.628;6.670;2023-05-10T10:55:24;20.30;;;12.47;;
64595;SDS011;51003;51.628;6.670;2023-05-10T10:57:55;23.30;;;12.03;;
64595;SDS011;51003;51.628;6.670;2023-05-10T11:00:30;18.67;;;12.07;;
64595;SDS011;51003;51.628;6.670;2023-05-10T11:03:00;20.03;;;13.03;;
64595;SDS011;51003;51.628;6.670;2023-05-10T11:10:35;23.80;;;14.00;;
64595;SDS011;51003;51.628;6.670;2023-05-10T11:15:34;25.83;;;14.50;;
64595;SDS011;51003;51.628;6.670;2023-05-10T11:18:20;26.23;;;14.87;;
64595;SDS011;51003;51.628;6.670;2023-05-10T11:21:08;23.50;;;13.60;;
64595;SDS011;51003;51.628;6.670;2023-05-10T11:26:12;22.40;;;14.30;;
64595;SDS011;51003;51.628;6.670;2023-05-10T11:28:45;23.10;;;14.60;;
64595;SDS011;51003;51.628;6.670;2023-05-10T11:31:16;23.93;;;13.90;;
64595;SDS011;51003;51.628;6.670;2023-05-10T11:33:49;21.57;;;13.80;;
64595;SDS011;51003;51.628;6.670;2023-05-10T11:36:23;23.90;;;14.00;;
64595;SDS011;51003;51.628;6.670;2023-05-10T11:38:48;23.27;;;14.03;;
64595;SDS011;51003;51.628;6.670;2023-05-10T11:41:15;24.90;;;14.03;;
64595;SDS011;51003;51.628;6.670;2023-05-10T11:43:42;22.63;;;13.47;;
64595;SDS011;51003;51.628;6.670;2023-05-10T11:46:11;23.47;;;13.07;;
64595;SDS011;51003;51.628;6.670;2023-05-10T11:48:41;20.93;;;12.67;;
64595;SDS011;51003;51.628;6.670;2023-05-10T11:51:07;19.67;;;12.23;;
64595;SDS011;51003;51.628;6.670;2023-05-10T11:53:33;20.43;;;12.13;;
64595;SDS011;51003;51.628;6.670;2023-05-10T11:56:03;19.50;;;12.10;;
64595;SDS011;51003;51.628;6.670;2023-05-10T11:58:31;20.00;;;12.80;;
64595;SDS011;51003;51.628;6.670;2023-05-10T12:00:58;17.10;;;11.00;;
64595;SDS011;51003;51.628;6.670;2023-05-10T12:03:25;16.90;;;11.10;;
64595;SDS011;51003;51.628;6.670;2023-05-10T12:05:50;16.20;;;11.60;;
64595;SDS011;51003;51.628;6.670;2023-05-10T12:08:19;15.70;;;11.77;;
64595;SDS011;51003;51.628;6.670;2023-05-10T12:10:46;17.27;;;11.40;;
64595;SDS011;51003;51.628;6.670;2023-05-10T12:13:12;14.60;;;11.23;;
64595;SDS011;51003;51.628;6.670;2023-05-10T12:15:39;15.07;;;11.00;;
64595;SDS011;51003;51.628;6.670;2023-05-10T12:18:04;15.50;;;11.40;;
64595;SDS011;51003;51.628;6.670;2023-05-10T12:20:30;16.77;;;11.73;;
64595;SDS011;51003;51.628;6.670;2023-05-10T12:22:56;17.20;;;11.53;;
64595;SDS011;51003;51.628;6.670;2023-05-10T12:25:23;16.10;;;12.07;;
64595;SDS011;51003;51.628;6.670;2023-05-10T12:27:50;17.00;;;12.07;;
64595;SDS011;51003;51.628;6.670;2023-05-10T12:30:27;16.03;;;11.50;;
64595;SDS011;51003;51.628;6.670;2023-05-10T12:32:53;14.73;;;11.23;;
64595;SDS011;51003;51.628;6.670;2023-05-10T12:35:19;15.10;;;10.70;;
64595;SDS011;51003;51.628;6.670;2023-05-10T12:37:47;12.27;;;9.87;;
64595;SDS011;51003;51.628;6.670;2023-05-10T12:40:13;15.17;;;10.30;;
64595;SDS011;51003;51.628;6.670;2023-05-10T12:42:39;11.77;;;9.63;;
64595;SDS011;51003;51.628;6.670;2023-05-10T12:45:05;12.87;;;9.43;;
64595;SDS011;51003;51.628;6.670;2023-05-10T12:47:31;12.77;;;9.33;;
64595;SDS011;51003;51.628;6.670;2023-05-10T12:49:57;11.63;;;9.53;;
64595;SDS011;51003;51.628;6.670;2023-05-10T12:52:23;11.00;;;9.77;;
64595;SDS011;51003;51.628;6.670;2023-05-10T12:54:48;12.17;;;9.20;;
64595;SDS011;51003;51.628;6.670;2023-05-10T12:57:14;12.50;;;9.70;;
64595;SDS011;51003;51.628;6.670;2023-05-10T12:59:40;11.67;;;9.43;;
64595;SDS011;51003;51.628;6.670;2023-05-10T13:02:06;9.80;;;8.50;;
64595;SDS011;51003;51.628;6.670;2023-05-10T13:04:31;10.90;;;8.77;;
64595;SDS011;51003;51.628;6.670;2023-05-10T13:06:57;13.63;;;9.90;;
64595;SDS011;51003;51.628;6.670;2023-05-10T13:09:24;11.37;;;9.07;;
64595;SDS011;51003;51.628;6.670;2023-05-10T13:11:50;13.07;;;10.00;;
64595;SDS011;51003;51.628;6.670;2023-05-10T13:14:18;11.87;;;9.47;;
64595;SDS011;51003;51.628;6.670;2023-05-10T13:16:45;13.70;;;9.50;;
64595;SDS011;51003;51.628;6.670;2023-05-10T13:19:12;15.53;;;10.40;;
64595;SDS011;51003;51.628;6.670;2023-05-10T13:21:37;14.53;;;11.03;;
64595;SDS011;51003;51.628;6.670;2023-05-10T13:24:03;14.03;;;11.60;;
64595;SDS011;51003;51.628;6.670;2023-05-10T13:26:28;18.50;;;11.90;;
64595;SDS011;51003;51.628;6.670;2023-05-10T13:28:54;14.13;;;10.80;;
64595;SDS011;51003;51.628;6.670;2023-05-10T13:31:20;13.63;;;10.40;;
64595;SDS011;51003;51.628;6.670;2023-05-10T13:33:46;13.83;;;10.23;;
64595;SDS011;51003;51.628;6.670;2023-05-10T13:36:11;12.43;;;10.00;;
64595;SDS011;51003;51.628;6.670;2023-05-10T13:38:36;14.70;;;10.13;;
64595;SDS011;51003;51.628;6.670;2023-05-10T13:41:02;15.90;;;10.00;;
64595;SDS011;51003;51.628;6.670;2023-05-10T13:43:28;13.63;;;10.00;;
64595;SDS011;51003;51.628;6.670;2023-05-10T13:45:54;14.57;;;10.53;;
64595;SDS011;51003;51.628;6.670;2023-05-10T13:48:20;15.30;;;9.97;;
64595;SDS011;51003;51.628;6.670;2023-05-10T13:50:46;12.83;;;10.00;;
64595;SDS011;51003;51.628;6.670;2023-05-10T13:53:11;13.77;;;10.23;;
64595;SDS011;51003;51.628;6.670;2023-05-10T13:55:37;12.73;;;10.27;;
64595;SDS011;51003;51.628;6.670;2023-05-10T13:58:03;16.53;;;10.17;;
64595;SDS011;51003;51.628;6.670;2023-05-10T14:00:29;11.30;;;9.50;;
64595;SDS011;51003;51.628;6.670;2023-05-10T14:02:55;12.73;;;9.40;;
64595;SDS011;51003;51.628;6.670;2023-05-10T14:05:21;10.73;;;8.13;;
64595;SDS011;51003;51.628;6.670;2023-05-10T14:07:46;8.60;;;6.90;;
64595;SDS011;51003;51.628;6.670;2023-05-10T14:10:12;6.57;;;5.97;;
64595;SDS011;51003;51.628;6.670;2023-05-10T14:12:38;7.70;;;5.93;;
64595;SDS011;51003;51.628;6.670;2023-05-10T14:15:03;7.63;;;6.83;;
64595;SDS011;51003;51.628;6.670;2023-05-10T14:17:31;9.10;;;8.20;;
64595;SDS011;51003;51.628;6.670;2023-05-10T14:19:57;9.10;;;7.87;;
64595;SDS011;51003;51.628;6.670;2023-05-10T14:22:23;10.43;;;9.10;;
64595;SDS011;51003;51.628;6.670;2023-05-10T14:24:48;9.50;;;8.50;;
64595;SDS011;51003;51.628;6.670;2023-05-10T14:27:14;10.33;;;8.67;;
64595;SDS011;51003;51.628;6.670;2023-05-10T14:29:40;10.83;;;8.97;;
64595;SDS011;51003;51.628;6.670;2023-05-10T14:32:05;10.50;;;8.63;;
64595;SDS011;51003;51.628;6.670;2023-05-10T14:34:31;15.23;;;9.00;;
64595;SDS011;51003;51.628;6.670;2023-05-10T14:36:57;11.10;;;8.90;;
64595;SDS011;51003;51.628;6.670;2023-05-10T14:39:23;12.27;;;8.90;;
64595;SDS011;51003;51.628;6.670;2023-05-10T14:41:48;13.67;;;9.17;;
64595;SDS011;51003;51.628;6.670;2023-05-10T14:44:16;10.93;;;8.67;;
64595;SDS011;51003;51.628;6.670;2023-05-10T14:46:42;12.60;;;8.00;;
64595;SDS011;51003;51.628;6.670;2023-05-10T14:49:07;10.40;;;8.53;;
64595;SDS011;51003;51.628;6.670;2023-05-10T14:51:33;10.90;;;8.70;;
64595;SDS011;51003;51.628;6.670;2023-05-10T14:53:59;16.57;;;9.53;;
64595;SDS011;51003;51.628;6.670;2023-05-10T14:56:24;11.77;;;8.87;;
64595;SDS011;51003;51.628;6.670;2023-05-10T14:58:53;12.50;;;9.80;;
64595;SDS011;51003;51.628;6.670;2023-05-10T15:01:19;13.30;;;9.20;;
64595;SDS011;51003;51.628;6.670;2023-05-10T15:03:44;9.30;;;8.27;;
64595;SDS011;51003;51.628;6.670;2023-05-10T15:06:10;10.17;;;7.10;;
64595;SDS011;51003;51.628;6.670;2023-05-10T15:08:36;8.03;;;5.70;;
64595;SDS011;51003;51.628;6.670;2023-05-10T15:11:01;6.90;;;5.40;;
64595;SDS011;51003;51.628;6.670;2023-05-10T15:13:28;5.00;;;4.50;;
64595;SDS011;51003;51.628;6.670;2023-05-10T15:15:53;5.57;;;4.53;;
64595;SDS011;51003;51.628;6.670;2023-05-10T15:18:19;6.43;;;5.20;;
64595;SDS011;51003;51.628;6.670;2023-05-10T15:20:45;7.30;;;5.53;;
64595;SDS011;51003;51.628;6.670;2023-05-10T15:23:11;6.30;;;5.63;;
64595;SDS011;51003;51.628;6.670;2023-05-10T15:25:36;6.60;;;6.00;;
64595;SDS011;51003;51.628;6.670;2023-05-10T15:28:02;10.23;;;5.70;;
64595;SDS011;51003;51.628;6.670;2023-05-10T15:30:28;7.17;;;5.70;;
64595;SDS011;51003;51.628;6.670;2023-05-10T15:32:54;5.73;;;5.03;;
64595;SDS011;51003;51.628;6.670;2023-05-10T15:35:20;5.27;;;4.77;;
64595;SDS011;51003;51.628;6.670;2023-05-10T15:37:47;5.03;;;4.50;;
64595;SDS011;51003;51.628;6.670;2023-05-10T15:40:12;6.17;;;4.60;;
64595;SDS011;51003;51.628;6.670;2023-05-10T15:42:38;4.87;;;4.17;;
64595;SDS011;51003;51.628;6.670;2023-05-10T15:45:04;5.17;;;4.70;;
64595;SDS011;51003;51.628;6.670;2023-05-10T15:47:30;5.10;;;4.60;;
64595;SDS011;51003;51.628;6.670;2023-05-10T15:49:56;6.10;;;5.30;;
64595;SDS011;51003;51.628;6.670;2023-05-10T15:52:21;7.83;;;5.97;;
64595;SDS011;51003;51.628;6.670;2023-05-10T15:54:48;8.43;;;6.33;;
64595;SDS011;51003;51.628;6.670;2023-05-10T15:57:14;6.50;;;5.77;;
64595;SDS011;51003;51.628;6.670;2023-05-10T15:59:40;6.03;;;5.27;;
64595;SDS011;51003;51.628;6.670;2023-05-10T16:02:06;6.43;;;5.73;;
64595;SDS011;51003;51.628;6.670;2023-05-10T16:04:32;7.97;;;5.50;;
64595;SDS011;51003;51.628;6.670;2023-05-10T16:06:57;5.43;;;4.77;;
64595;SDS011;51003;51.628;6.670;2023-05-10T16:09:23;5.67;;;4.60;;
64595;SDS011;51003;51.628;6.670;2023-05-10T16:11:49;16.17;;;5.80;;
64595;SDS011;51003;51.628;6.670;2023-05-10T16:14:14;6.77;;;4.90;;
64595;SDS011;51003;51.628;6.670;2023-05-10T16:16:41;6.30;;;5.20;;
64595;SDS011;51003;51.628;6.670;2023-05-10T16:19:07;7.47;;;6.00;;
64595;SDS011;51003;51.628;6.670;2023-05-10T16:21:33;8.43;;;6.50;;
64595;SDS011;51003;51.628;6.670;2023-05-10T16:23:59;6.60;;;5.93;;
64595;SDS011;51003;51.628;6.670;2023-05-10T16:26:24;8.43;;;6.10;;
64595;SDS011;51003;51.628;6.670;2023-05-10T16:28:50;7.67;;;5.90;;
64595;SDS011;51003;51.628;6.670;2023-05-10T16:31:16;8.73;;;5.87;;
64595;SDS011;51003;51.628;6.670;2023-05-10T16:33:44;8.13;;;6.30;;
64595;SDS011;51003;51.628;6.670;2023-05-10T16:36:10;7.70;;;6.23;;
64595;SDS011;51003;51.628;6.670;2023-05-10T16:38:36;13.30;;;7.43;;
64595;SDS011;51003;51.628;6.670;2023-05-10T16:41:01;8.20;;;6.73;;
64595;SDS011;51003;51.628;6.670;2023-05-10T16:43:27;11.73;;;7.57;;
64595;SDS011;51003;51.628;6.670;2023-05-10T16:45:53;9.47;;;6.50;;
64595;SDS011;51003;51.628;6.670;2023-05-10T16:48:19;9.03;;;7.20;;
64595;SDS011;51003;51.628;6.670;2023-05-10T16:50:44;11.60;;;6.40;;
64595;SDS011;51003;51.628;6.670;2023-05-10T16:53:10;8.60;;;6.10;;
64595;SDS011;51003;51.628;6.670;2023-05-10T16:55:36;8.50;;;6.67;;
64595;SDS011;51003;51.628;6.670;2023-05-10T16:58:01;8.63;;;6.40;;
64595;SDS011;51003;51.628;6.670;2023-05-10T17:00:27;9.20;;;6.27;;
64595;SDS011;51003;51.628;6.670;2023-05-10T17:02:53;9.93;;;6.23;;
64595;SDS011;51003;51.628;6.670;2023-05-10T17:05:19;9.77;;;6.33;;